createdAt,value
2022-09-12T00:02:09.631Z,81.54
2022-09-12T00:05:07.368Z,81.45
2022-09-12T00:08:04.889Z,81.41
2022-09-12T00:11:02.300Z,81.51
2022-09-12T00:13:59.723Z,81.49
2022-09-12T00:16:57.153Z,81.72
2022-09-12T00:19:55.070Z,81.85
2022-09-12T00:22:52.498Z,81.91
2022-09-12T00:25:49.920Z,81.95
2022-09-12T00:28:47.543Z,82.07
2022-09-12T00:31:45.292Z,82.08
2022-09-12T00:34:42.739Z,82.24
2022-09-12T00:37:40.160Z,82.18
2022-09-12T00:40:37.594Z,82.17
2022-09-12T00:43:35.017Z,82.35
2022-09-12T00:46:32.434Z,82.41
2022-09-12T00:49:29.925Z,82.55
2022-09-12T00:52:27.350Z,82.45
2022-09-12T00:55:24.755Z,82.30
2022-09-12T00:58:22.259Z,82.55
2022-09-12T01:01:20.803Z,82.62
2022-09-12T01:04:18.377Z,82.78
2022-09-12T01:07:16.306Z,82.66
2022-09-12T01:10:13.735Z,82.63
2022-09-12T01:13:11.170Z,82.65
2022-09-12T01:16:08.632Z,82.80
2022-09-12T01:19:06.087Z,82.68
2022-09-12T01:22:03.513Z,82.53
2022-09-12T01:25:00.945Z,82.63
2022-09-12T01:27:58.384Z,82.78
2022-09-12T01:30:55.842Z,82.68
2022-09-12T01:33:53.297Z,82.62
2022-09-12T01:36:51.867Z,82.32
2022-09-12T01:39:49.317Z,82.46
2022-09-12T01:42:47.090Z,82.57
2022-09-12T01:45:44.546Z,82.53
2022-09-12T01:48:42.006Z,82.62
2022-09-12T01:51:39.470Z,82.60
2022-09-12T01:54:36.906Z,82.71
2022-09-12T01:57:34.357Z,82.54
2022-09-12T02:00:31.769Z,82.57
2022-09-12T02:03:29.404Z,82.61
2022-09-12T02:06:26.830Z,82.65
2022-09-12T02:09:24.280Z,82.49
2022-09-12T02:12:21.702Z,82.49
2022-09-12T02:15:19.149Z,82.80
2022-09-12T02:18:18.150Z,82.77
2022-09-12T02:21:15.617Z,82.90
2022-09-12T02:24:13.022Z,82.85
2022-09-12T02:27:10.453Z,82.89
2022-09-12T02:30:07.982Z,82.94
2022-09-12T02:33:05.395Z,83.00
2022-09-12T02:36:02.839Z,83.12
2022-09-12T02:39:00.273Z,83.12
2022-09-12T02:41:58.245Z,83.15
2022-09-12T02:44:55.694Z,83.16
2022-09-12T02:47:53.087Z,83.15
2022-09-12T02:50:50.560Z,83.21
2022-09-12T02:53:47.971Z,83.24
2022-09-12T02:56:45.414Z,83.28
2022-09-12T02:59:42.923Z,83.41
2022-09-12T03:02:40.352Z,83.53
2022-09-12T03:05:38.006Z,83.56
2022-09-12T03:08:35.487Z,83.61
2022-09-12T03:11:33.341Z,83.54
2022-09-12T03:14:30.771Z,83.72
2022-09-12T03:17:28.217Z,83.76
2022-09-12T03:20:25.758Z,83.81
2022-09-12T03:23:23.226Z,83.91
2022-09-12T03:26:20.677Z,83.89
2022-09-12T03:29:18.153Z,84.06
2022-09-12T03:32:15.571Z,84.16
2022-09-12T03:35:12.982Z,84.21
2022-09-12T03:38:10.418Z,84.21
2022-09-12T03:41:08.080Z,84.25
2022-09-12T03:44:05.505Z,84.35
2022-09-12T03:47:02.965Z,84.44
2022-09-12T03:50:00.381Z,84.46
2022-09-12T03:52:57.808Z,84.49
2022-09-12T03:55:55.235Z,84.50
2022-09-12T03:58:52.668Z,84.50
2022-09-12T04:01:50.104Z,84.54
2022-09-12T04:04:48.113Z,84.72
2022-09-12T04:07:45.545Z,84.84
2022-09-12T04:10:42.959Z,84.84
2022-09-12T04:13:40.416Z,85.08
2022-09-12T04:16:37.959Z,85.06
2022-09-12T04:19:35.400Z,85.20
2022-09-12T04:22:33.491Z,85.31
2022-09-12T04:25:31.565Z,85.38
2022-09-12T04:28:29.751Z,85.28
2022-09-12T04:31:27.171Z,85.23
2022-09-12T04:34:24.617Z,85.20
2022-09-12T04:37:23.698Z,85.32
2022-09-12T04:40:21.530Z,85.29
2022-09-12T04:43:18.980Z,85.19
2022-09-12T04:46:16.832Z,85.09
2022-09-12T04:49:14.291Z,85.10
2022-09-12T04:52:11.706Z,85.00
2022-09-12T04:55:09.120Z,84.96
2022-09-12T04:58:06.543Z,84.94
2022-09-12T05:01:03.996Z,84.84
2022-09-12T05:04:01.482Z,84.66
2022-09-12T05:06:58.891Z,84.48
2022-09-12T05:09:56.396Z,84.25
2022-09-12T05:12:53.827Z,83.92
2022-09-12T05:15:51.285Z,83.83
2022-09-12T05:18:49.203Z,83.38
2022-09-12T05:21:46.611Z,83.41
2022-09-12T05:24:49.893Z,83.30
2022-09-12T05:27:50.551Z,83.19
2022-09-12T05:30:48.138Z,82.96
2022-09-12T05:33:45.602Z,82.71
2022-09-12T05:36:43.047Z,82.35
2022-09-12T05:39:40.509Z,81.99
2022-09-12T05:42:38.155Z,81.95
2022-09-12T05:45:35.603Z,81.91
2022-09-12T05:48:34.549Z,81.77
2022-09-12T05:51:32.000Z,81.57
2022-09-12T05:54:31.725Z,81.42
2022-09-12T05:57:29.338Z,81.25
2022-09-12T06:00:29.341Z,80.99
2022-09-12T06:03:30.406Z,80.92
2022-09-12T06:06:27.835Z,80.65
2022-09-12T06:09:26.387Z,80.54
2022-09-12T06:12:23.807Z,80.55
2022-09-12T06:15:21.251Z,80.32
2022-09-12T06:18:18.723Z,80.03
2022-09-12T06:21:16.121Z,79.72
2022-09-12T06:24:13.563Z,79.61
2022-09-12T06:27:11.000Z,79.18
2022-09-12T06:30:08.433Z,78.67
2022-09-12T06:33:05.863Z,77.61
2022-09-12T06:36:03.817Z,76.54
2022-09-12T06:39:01.989Z,75.44
2022-09-12T06:41:59.460Z,74.37
2022-09-12T06:44:56.881Z,73.83
2022-09-12T06:47:54.282Z,73.04
2022-09-12T06:50:51.708Z,72.40
2022-09-12T06:53:49.132Z,72.37
2022-09-12T06:56:46.590Z,71.89
2022-09-12T06:59:44.022Z,71.03
2022-09-12T07:02:41.563Z,70.56
2022-09-12T07:05:39.036Z,70.25
2022-09-12T07:08:37.180Z,70.26
2022-09-12T07:11:34.608Z,69.80
2022-09-12T07:14:32.026Z,69.70
2022-09-12T07:17:29.440Z,69.61
2022-09-12T07:20:26.943Z,69.52
2022-09-12T07:23:24.398Z,69.25
2022-09-12T07:26:21.861Z,68.84
2022-09-12T07:29:35.959Z,68.71
2022-09-12T07:32:34.319Z,68.08
2022-09-12T07:35:31.749Z,67.68
2022-09-12T07:38:29.203Z,67.50
2022-09-12T07:41:26.639Z,67.48
2022-09-12T07:44:24.304Z,67.29
2022-09-12T07:47:21.733Z,67.16
2022-09-12T07:50:19.532Z,66.95
2022-09-12T07:53:16.967Z,65.55
2022-09-12T07:56:14.511Z,63.63
2022-09-12T07:59:11.948Z,61.91
2022-09-12T08:02:11.536Z,59.34
2022-09-12T08:05:12.217Z,56.78
2022-09-12T08:08:10.051Z,54.09
2022-09-12T08:11:07.496Z,50.73
2022-09-12T08:14:05.918Z,50.15
2022-09-12T08:17:03.359Z,48.00
2022-09-12T08:20:00.781Z,45.94
2022-09-12T08:22:58.240Z,46.07
2022-09-12T08:25:55.674Z,44.15
2022-09-12T08:28:53.584Z,42.80
2022-09-12T08:31:55.170Z,40.09
2022-09-12T08:34:54.688Z,38.29
2022-09-12T08:37:52.108Z,37.79
2022-09-12T08:40:49.536Z,38.47
2022-09-12T08:43:47.059Z,39.43
2022-09-12T08:46:44.867Z,40.16
2022-09-12T08:49:42.293Z,40.19
2022-09-12T08:52:39.817Z,39.00
2022-09-12T08:55:37.243Z,38.04
2022-09-12T08:58:35.451Z,38.12
2022-09-12T09:01:33.031Z,39.60
2022-09-12T09:04:30.563Z,39.36
2022-09-12T09:07:28.514Z,38.87
2022-09-12T09:10:25.918Z,38.86
2022-09-12T09:13:37.208Z,38.95
2022-09-12T09:16:35.125Z,38.36
2022-09-12T09:19:32.805Z,39.32
2022-09-12T09:22:30.228Z,38.00
2022-09-12T09:25:27.649Z,36.87
2022-09-12T09:28:25.170Z,35.25
2022-09-12T09:31:22.686Z,34.21
2022-09-12T09:34:20.158Z,34.00
2022-09-12T09:37:17.573Z,33.57
2022-09-12T09:40:15.615Z,33.73
2022-09-12T09:43:13.587Z,33.40
2022-09-12T09:46:11.990Z,33.96
2022-09-12T09:49:09.591Z,34.36
2022-09-12T09:52:07.016Z,35.17
2022-09-12T09:55:05.368Z,35.83
2022-09-12T09:58:04.257Z,37.15
2022-09-12T10:01:01.804Z,37.33
2022-09-12T10:03:59.994Z,36.96
2022-09-12T10:06:57.424Z,35.51
2022-09-12T10:09:54.843Z,34.00
2022-09-12T10:12:52.286Z,32.42
2022-09-12T10:15:49.779Z,31.24
2022-09-12T10:18:47.275Z,29.36
2022-09-12T10:21:44.710Z,28.52
2022-09-12T10:24:42.420Z,27.28
2022-09-12T10:27:39.839Z,25.84
2022-09-12T10:30:37.308Z,26.34
2022-09-12T10:33:35.207Z,25.02
2022-09-12T10:36:32.661Z,24.82
2022-09-12T10:39:31.132Z,24.37
2022-09-12T10:42:28.569Z,25.35
2022-09-12T10:45:26.502Z,24.23
2022-09-12T10:48:23.912Z,24.71
2022-09-12T10:51:21.363Z,24.32
2022-09-12T10:54:19.220Z,24.38
2022-09-12T10:57:17.150Z,24.71
2022-09-12T11:00:20.229Z,24.73
2022-09-12T11:03:17.669Z,24.05
2022-09-12T11:06:15.165Z,24.00
2022-09-12T11:09:12.571Z,22.91
2022-09-12T11:12:09.977Z,23.43
2022-09-12T11:15:07.416Z,24.30
2022-09-12T11:18:05.243Z,25.72
2022-09-12T11:21:03.260Z,26.95
2022-09-12T11:24:00.680Z,27.87
2022-09-12T11:26:58.093Z,28.11
2022-09-12T11:29:55.507Z,28.97
2022-09-12T11:32:53.396Z,29.55
2022-09-12T11:35:54.979Z,29.30
2022-09-12T11:38:53.260Z,28.20
2022-09-12T11:41:50.703Z,27.26
2022-09-12T11:44:48.248Z,26.78
2022-09-12T11:47:45.676Z,25.84
2022-09-12T11:50:43.115Z,24.92
2022-09-12T11:53:40.566Z,24.92
2022-09-12T11:56:38.285Z,25.83
2022-09-12T11:59:35.701Z,26.72
2022-09-12T12:02:33.222Z,26.77
2022-09-12T12:05:31.288Z,27.31
2022-09-12T12:08:28.807Z,27.50
2022-09-12T12:11:26.233Z,26.97
2022-09-12T12:14:23.676Z,26.37
2022-09-12T12:17:21.266Z,26.14
2022-09-12T12:20:18.767Z,26.03
2022-09-12T12:23:16.207Z,26.57
2022-09-12T12:26:13.629Z,27.33
2022-09-12T12:29:11.205Z,27.69
2022-09-12T12:32:08.970Z,28.11
2022-09-12T12:35:06.393Z,28.72
2022-09-12T12:38:03.931Z,29.04
2022-09-12T12:41:01.342Z,28.88
2022-09-12T12:43:58.766Z,29.05
2022-09-12T12:46:56.171Z,29.22
2022-09-12T12:49:53.629Z,29.54
2022-09-12T12:52:51.042Z,29.96
2022-09-12T12:55:48.914Z,30.43
2022-09-12T12:58:46.347Z,30.52
2022-09-12T13:01:43.828Z,30.64
2022-09-12T13:04:41.320Z,30.92
2022-09-12T13:07:38.749Z,31.53
2022-09-12T13:10:36.173Z,31.51
2022-09-12T13:13:33.589Z,31.21
2022-09-12T13:16:31.026Z,31.24
2022-09-12T13:19:29.305Z,31.34
2022-09-12T13:22:26.701Z,31.79
2022-09-12T13:25:24.146Z,32.41
2022-09-12T13:28:21.578Z,33.07
2022-09-12T13:31:19.105Z,33.50
2022-09-12T13:34:16.764Z,33.95
2022-09-12T13:37:14.198Z,34.51
2022-09-12T13:40:11.750Z,35.13
2022-09-12T13:43:09.626Z,35.76
2022-09-12T13:46:07.131Z,36.10
2022-09-12T13:49:05.100Z,36.17
2022-09-12T13:52:02.529Z,36.23
2022-09-12T13:55:00.079Z,36.25
2022-09-12T13:57:58.313Z,36.25
2022-09-12T14:00:55.754Z,36.39
2022-09-12T14:04:10.905Z,36.47
2022-09-12T14:07:08.335Z,36.25
2022-09-12T14:10:06.279Z,36.56
2022-09-12T14:13:03.696Z,37.31
2022-09-12T14:16:01.771Z,37.32
2022-09-12T14:19:00.794Z,37.70
2022-09-12T14:21:58.290Z,38.15
2022-09-12T14:24:56.001Z,38.55
2022-09-12T14:27:54.124Z,39.08
2022-09-12T14:30:51.606Z,39.66
2022-09-12T14:33:49.077Z,39.70
2022-09-12T14:36:46.535Z,40.05
2022-09-12T14:39:44.111Z,40.10
2022-09-12T14:42:41.581Z,40.39
2022-09-12T14:45:38.983Z,40.70
2022-09-12T14:48:36.886Z,40.59
2022-09-12T14:51:34.815Z,40.88
2022-09-12T14:54:33.060Z,41.55
2022-09-12T14:57:30.498Z,41.94
2022-09-12T15:00:28.003Z,42.47
2022-09-12T15:03:25.485Z,42.82
2022-09-12T15:06:23.068Z,43.47
2022-09-12T15:09:20.515Z,43.90
2022-09-12T15:12:17.975Z,44.58
2022-09-12T15:15:15.427Z,44.71
2022-09-12T15:18:13.890Z,44.61
2022-09-12T15:21:11.324Z,44.70
2022-09-12T15:24:08.786Z,44.86
2022-09-12T15:27:06.213Z,45.09
2022-09-12T15:30:03.726Z,45.17
2022-09-12T15:33:01.167Z,45.01
2022-09-12T15:35:58.588Z,44.99
2022-09-12T15:38:56.057Z,45.02
2022-09-12T15:41:54.082Z,45.16
2022-09-12T15:44:51.507Z,45.01
2022-09-12T15:47:48.955Z,44.88
2022-09-12T15:50:46.412Z,44.98
2022-09-12T15:53:43.882Z,45.19
2022-09-12T15:56:41.335Z,45.61
2022-09-12T15:59:38.933Z,45.98
2022-09-12T16:02:36.398Z,45.85
2022-09-12T16:05:34.572Z,46.02
2022-09-12T16:08:33.152Z,46.36
2022-09-12T16:11:30.567Z,46.70
2022-09-12T16:14:28.008Z,47.12
2022-09-12T16:17:25.572Z,47.77
2022-09-12T16:20:24.427Z,47.95
2022-09-12T16:23:21.976Z,48.70
2022-09-12T16:26:19.447Z,49.11
2022-09-12T16:29:17.016Z,49.51
2022-09-12T16:32:14.427Z,50.04
2022-09-12T16:35:11.856Z,50.62
2022-09-12T16:38:09.316Z,50.73
2022-09-12T16:41:06.750Z,51.09
2022-09-12T16:44:04.173Z,51.41
2022-09-12T16:47:01.609Z,51.76
2022-09-12T16:49:59.201Z,51.77
2022-09-12T16:52:56.604Z,52.07
2022-09-12T16:55:54.046Z,52.43
2022-09-12T16:58:51.685Z,52.74
2022-09-12T17:01:49.361Z,52.85
2022-09-12T17:04:46.813Z,53.27
2022-09-12T17:07:44.223Z,53.73
2022-09-12T17:10:41.779Z,54.01
2022-09-12T17:14:00.543Z,54.39
2022-09-12T17:16:56.606Z,54.75
2022-09-12T17:19:54.064Z,55.30
2022-09-12T17:22:51.480Z,55.60
2022-09-12T17:25:49.313Z,56.06
2022-09-12T17:28:47.249Z,56.59
2022-09-12T17:31:44.676Z,56.87
2022-09-12T17:34:42.290Z,57.23
2022-09-12T17:37:40.055Z,57.58
2022-09-12T17:40:58.571Z,58.14
2022-09-12T17:43:57.434Z,58.47
2022-09-12T17:46:54.934Z,58.87
2022-09-12T17:50:05.137Z,59.11
2022-09-12T17:53:29.225Z,59.29
2022-09-12T17:56:31.851Z,59.60
2022-09-12T17:59:44.307Z,59.69
2022-09-12T18:02:43.920Z,59.98
2022-09-12T18:05:43.014Z,60.15
2022-09-12T18:08:42.162Z,60.59
2022-09-12T18:11:41.554Z,61.11
2022-09-12T18:14:39.353Z,61.46
2022-09-12T18:17:37.171Z,61.96
2022-09-12T18:20:34.990Z,62.61
2022-09-12T18:23:33.387Z,62.57
2022-09-12T18:26:30.871Z,63.00
2022-09-12T18:29:28.619Z,62.94
2022-09-12T18:32:26.493Z,62.84
2022-09-12T18:35:24.248Z,63.50
2022-09-12T18:38:21.760Z,63.73
2022-09-12T18:41:19.510Z,63.64
2022-09-12T18:44:17.395Z,63.92
2022-09-12T18:47:15.241Z,64.15
2022-09-12T18:50:13.114Z,64.19
2022-09-12T18:53:10.993Z,64.76
2022-09-12T18:56:09.847Z,64.88
2022-09-12T18:59:07.725Z,65.03
2022-09-12T19:02:07.069Z,65.30
2022-09-12T19:05:04.993Z,65.61
2022-09-12T19:08:03.599Z,65.61
2022-09-12T19:11:08.893Z,66.02
2022-09-12T19:14:09.646Z,66.03
2022-09-12T19:17:12.229Z,66.26
2022-09-12T19:20:13.586Z,66.51
2022-09-12T19:23:14.922Z,66.80
2022-09-12T19:26:13.387Z,66.86
2022-09-12T19:29:12.777Z,67.26
2022-09-12T19:32:11.965Z,67.59
2022-09-12T19:35:13.433Z,68.02
2022-09-12T19:38:18.570Z,68.30
2022-09-12T19:41:16.945Z,68.27
2022-09-12T19:44:16.543Z,68.60
2022-09-12T19:47:14.923Z,68.73
2022-09-12T19:50:12.460Z,69.04
2022-09-12T19:53:09.947Z,69.21
2022-09-12T19:56:07.850Z,69.56
2022-09-12T19:59:05.386Z,69.74
2022-09-12T20:02:03.458Z,69.87
2022-09-12T20:05:01.116Z,70.00
2022-09-12T20:07:58.983Z,70.24
2022-09-12T20:10:57.171Z,70.40
2022-09-12T20:13:54.837Z,70.74
2022-09-12T20:16:52.273Z,70.72
2022-09-12T20:19:49.690Z,70.84
2022-09-12T20:22:47.588Z,71.11
2022-09-12T20:25:45.073Z,71.22
2022-09-12T20:28:43.247Z,71.41
2022-09-12T20:31:41.081Z,71.55
2022-09-12T20:34:39.179Z,71.67
2022-09-12T20:37:37.728Z,71.89
2022-09-12T20:40:35.225Z,72.17
2022-09-12T20:43:32.647Z,72.39
2022-09-12T20:46:30.099Z,72.54
2022-09-12T20:49:27.559Z,72.69
2022-09-12T20:52:24.976Z,72.91
2022-09-12T20:55:22.419Z,73.24
2022-09-12T20:58:19.823Z,73.28
2022-09-12T21:01:17.321Z,73.38
2022-09-12T21:04:15.345Z,73.48
2022-09-12T21:07:12.849Z,73.79
2022-09-12T21:10:10.567Z,74.06
2022-09-12T21:13:08.034Z,74.27
2022-09-12T21:16:05.512Z,74.38
2022-09-12T21:19:02.961Z,74.50
2022-09-12T21:22:01.022Z,74.53
2022-09-12T21:24:58.435Z,74.57
2022-09-12T21:27:55.864Z,74.67
2022-09-12T21:30:53.318Z,74.88
2022-09-12T21:33:50.767Z,75.00
2022-09-12T21:36:48.187Z,75.06
2022-09-12T21:39:45.667Z,75.29
2022-09-12T21:42:43.333Z,75.41
2022-09-12T21:45:40.825Z,75.64
2022-09-12T21:48:38.485Z,75.75
2022-09-12T21:51:35.926Z,75.88
2022-09-12T21:54:35.235Z,75.91
2022-09-12T21:57:32.648Z,76.04
2022-09-12T22:00:30.078Z,76.23
2022-09-12T22:03:27.498Z,76.49
2022-09-12T22:06:24.925Z,76.63
2022-09-12T22:09:22.390Z,76.63
2022-09-12T22:12:19.877Z,76.68
2022-09-12T22:15:39.513Z,76.74
2022-09-12T22:18:35.261Z,76.79
2022-09-12T22:21:32.688Z,77.00
2022-09-12T22:24:30.143Z,76.96
2022-09-12T22:27:27.625Z,76.93
2022-09-12T22:30:26.357Z,77.10
2022-09-12T22:33:23.766Z,77.04
2022-09-12T22:36:23.346Z,77.12
2022-09-12T22:39:21.142Z,77.27
2022-09-12T22:42:18.950Z,77.30
2022-09-12T22:45:16.405Z,77.42
2022-09-12T22:48:13.840Z,77.56
2022-09-12T22:51:11.250Z,77.65
2022-09-12T22:54:08.666Z,77.77
2022-09-12T22:57:06.089Z,77.73
2022-09-12T23:00:03.533Z,77.92
2022-09-12T23:03:02.009Z,77.93
2022-09-12T23:05:59.457Z,77.91
2022-09-12T23:08:57.337Z,77.99
2022-09-12T23:11:54.884Z,78.01
2022-09-12T23:14:52.382Z,78.10
2022-09-12T23:17:49.831Z,78.13
2022-09-12T23:20:47.273Z,78.17
2022-09-12T23:23:44.703Z,78.26
2022-09-12T23:26:42.146Z,78.26
2022-09-12T23:29:39.572Z,78.35
2022-09-12T23:32:37.408Z,78.41
2022-09-12T23:35:34.873Z,78.46
2022-09-12T23:38:32.294Z,78.42
2022-09-12T23:41:29.806Z,78.48
2022-09-12T23:44:27.239Z,78.61
2022-09-12T23:47:24.716Z,78.66
2022-09-12T23:50:22.118Z,78.69
2022-09-12T23:53:19.621Z,78.70
2022-09-12T23:56:17.039Z,78.76
2022-09-12T23:59:14.597Z,78.83
